createdAt,value
2023-03-28T00:01:39.871Z,21.78
2023-03-28T00:04:11.816Z,20.61
2023-03-28T00:06:41.989Z,20.68
2023-03-28T00:09:11.184Z,20.26
2023-03-28T00:11:39.284Z,20.61
2023-03-28T00:14:08.823Z,20.89
2023-03-28T00:16:39.598Z,21.39
2023-03-28T00:19:11.888Z,22.10
2023-03-28T00:21:43.127Z,21.68
2023-03-28T00:24:14.030Z,22.98
2023-03-28T00:26:44.029Z,23.86
2023-03-28T00:29:21.588Z,23.92
2023-03-28T00:31:51.436Z,24.30
2023-03-28T00:34:19.393Z,24.73
2023-03-28T00:36:47.268Z,25.18
2023-03-28T00:39:15.568Z,25.81
2023-03-28T00:41:45.302Z,26.24
2023-03-28T00:44:41.851Z,24.95
2023-03-28T00:47:18.364Z,23.72
2023-03-28T00:49:50.057Z,23.33
2023-03-28T00:52:18.864Z,22.70
2023-03-28T00:54:47.068Z,22.72
2023-03-28T00:57:16.797Z,22.80
2023-03-28T00:59:46.135Z,22.68
2023-03-28T01:02:14.279Z,23.21
2023-03-28T01:05:06.278Z,22.76
2023-03-28T01:07:42.652Z,23.04
2023-03-28T01:10:12.262Z,23.20
2023-03-28T01:12:42.392Z,23.55
2023-03-28T01:15:11.088Z,23.63
2023-03-28T01:17:54.456Z,24.13
2023-03-28T01:20:47.077Z,23.57
2023-03-28T01:23:38.917Z,24.03
2023-03-28T01:26:44.354Z,23.03
2023-03-28T01:29:39.897Z,23.20
2023-03-28T01:32:30.078Z,23.71
2023-03-28T01:35:22.055Z,22.69
2023-03-28T01:38:12.488Z,23.23
2023-03-28T01:40:54.795Z,22.68
2023-03-28T01:43:25.975Z,22.48
2023-03-28T01:46:08.339Z,22.76
2023-03-28T01:49:28.665Z,23.38
2023-03-28T01:52:11.316Z,23.80
2023-03-28T01:55:14.826Z,22.86
2023-03-28T01:57:57.954Z,23.79
2023-03-28T02:00:46.318Z,24.14
2023-03-28T02:03:33.351Z,24.31
2023-03-28T02:06:09.550Z,24.87
2023-03-28T02:08:41.814Z,24.43
2023-03-28T02:11:39.926Z,24.44
2023-03-28T02:14:19.229Z,24.06
2023-03-28T02:16:55.602Z,23.72
2023-03-28T02:19:48.510Z,24.29
2023-03-28T02:22:35.745Z,24.74
2023-03-28T02:25:11.170Z,24.63
2023-03-28T02:28:09.242Z,25.11
2023-03-28T02:30:55.658Z,25.51
2023-03-28T02:33:39.535Z,25.88
2023-03-28T02:36:26.393Z,25.57
2023-03-28T02:39:39.100Z,25.62
2023-03-28T02:42:35.389Z,26.21
2023-03-28T02:45:29.186Z,26.37
2023-03-28T02:48:38.120Z,25.86
2023-03-28T02:51:23.848Z,25.85
2023-03-28T02:53:51.715Z,26.07
2023-03-28T02:56:38.642Z,26.71
2023-03-28T02:59:28.663Z,26.13
2023-03-28T03:01:57.094Z,25.70
2023-03-28T03:04:25.157Z,24.53
2023-03-28T03:06:53.176Z,25.47
2023-03-28T03:09:21.236Z,25.36
2023-03-28T03:11:49.416Z,25.56
2023-03-28T03:14:17.555Z,26.29
2023-03-28T03:16:49.099Z,26.57
2023-03-28T03:19:19.647Z,26.75
2023-03-28T03:21:47.599Z,26.97
2023-03-28T03:24:16.088Z,26.10
2023-03-28T03:26:45.764Z,27.08
2023-03-28T03:29:17.635Z,26.50
2023-03-28T03:31:46.566Z,25.90
2023-03-28T03:34:21.050Z,25.95
2023-03-28T03:36:55.120Z,26.84
2023-03-28T03:39:23.732Z,27.46
2023-03-28T03:41:51.640Z,27.77
2023-03-28T03:44:19.555Z,27.66
2023-03-28T03:46:47.504Z,27.63
2023-03-28T03:49:15.520Z,27.66
2023-03-28T03:51:43.686Z,26.83
2023-03-28T03:54:12.312Z,26.79
2023-03-28T03:56:40.904Z,27.87
2023-03-28T03:59:09.041Z,28.82
2023-03-28T04:01:40.228Z,29.35
2023-03-28T04:04:27.641Z,28.86
2023-03-28T04:07:08.958Z,28.72
2023-03-28T04:09:37.010Z,28.91
2023-03-28T04:12:08.304Z,29.75
2023-03-28T04:14:46.894Z,29.70
2023-03-28T04:17:35.458Z,30.75
2023-03-28T04:20:13.460Z,30.80
2023-03-28T04:23:01.131Z,30.08
2023-03-28T04:25:31.838Z,29.71
2023-03-28T04:28:10.567Z,29.83
2023-03-28T04:30:46.858Z,30.56
2023-03-28T04:33:34.136Z,29.86
2023-03-28T04:36:06.138Z,30.07
2023-03-28T04:38:37.779Z,30.39
2023-03-28T04:41:25.993Z,30.32
2023-03-28T04:44:23.379Z,30.51
2023-03-28T04:46:59.573Z,31.88
2023-03-28T04:49:27.534Z,32.60
2023-03-28T04:51:55.858Z,33.42
2023-03-28T04:54:23.771Z,33.40
2023-03-28T04:57:10.080Z,32.91
2023-03-28T04:59:46.551Z,32.31
2023-03-28T05:02:23.106Z,32.85
2023-03-28T05:05:07.804Z,33.55
2023-03-28T05:07:36.996Z,33.29
2023-03-28T05:10:06.730Z,33.93
2023-03-28T05:12:39.218Z,32.78
2023-03-28T05:15:07.780Z,32.46
2023-03-28T05:17:47.612Z,32.23
2023-03-28T05:20:36.718Z,32.63
2023-03-28T05:23:08.946Z,32.67
2023-03-28T05:25:40.273Z,32.85
2023-03-28T05:28:08.435Z,33.02
2023-03-28T05:30:43.917Z,33.47
2023-03-28T05:33:12.019Z,33.25
2023-03-28T05:35:40.651Z,33.40
2023-03-28T05:38:08.854Z,32.79
2023-03-28T05:40:37.597Z,33.10
2023-03-28T05:43:05.637Z,32.77
2023-03-28T05:45:34.686Z,33.69
2023-03-28T05:48:08.082Z,33.90
2023-03-28T05:50:37.513Z,33.53
2023-03-28T05:53:08.587Z,33.92
2023-03-28T05:55:36.484Z,34.22
2023-03-28T05:58:05.488Z,33.64
2023-03-28T06:00:38.119Z,34.26
2023-03-28T06:03:08.117Z,33.69
2023-03-28T06:05:42.385Z,33.35
2023-03-28T06:08:19.364Z,32.93
2023-03-28T06:10:47.257Z,33.57
2023-03-28T06:13:26.498Z,34.06
2023-03-28T06:15:54.937Z,34.29
2023-03-28T06:18:31.802Z,34.01
2023-03-28T06:20:59.963Z,34.16
2023-03-28T06:23:28.156Z,33.55
2023-03-28T06:25:55.995Z,32.73
2023-03-28T06:28:24.694Z,32.22
2023-03-28T06:31:13.390Z,31.71
2023-03-28T06:33:43.407Z,31.68
2023-03-28T06:36:12.443Z,30.71
2023-03-28T06:38:40.542Z,30.51
2023-03-28T06:41:09.002Z,29.81
2023-03-28T06:43:38.100Z,29.08
2023-03-28T06:46:08.640Z,29.27
2023-03-28T06:48:40.066Z,29.08
2023-03-28T06:51:27.409Z,29.16
2023-03-28T06:53:55.708Z,28.54
2023-03-28T06:56:28.858Z,28.20
2023-03-28T06:58:59.083Z,26.84
2023-03-28T07:01:29.199Z,27.05
2023-03-28T07:04:10.565Z,26.98
2023-03-28T07:06:39.081Z,26.29
2023-03-28T07:09:07.182Z,28.69
2023-03-28T07:11:41.536Z,29.32
2023-03-28T07:14:09.660Z,29.25
2023-03-28T07:16:38.001Z,28.54
2023-03-28T07:19:06.166Z,27.68
2023-03-28T07:21:37.375Z,24.86
2023-03-28T07:24:06.253Z,25.35
2023-03-28T07:26:46.491Z,25.39
2023-03-28T07:29:14.410Z,24.48
2023-03-28T07:31:42.890Z,24.82
2023-03-28T07:34:10.951Z,24.69
2023-03-28T07:36:39.985Z,24.53
2023-03-28T07:39:13.817Z,22.67
2023-03-28T07:41:41.733Z,22.11
2023-03-28T07:44:09.901Z,22.99
2023-03-28T07:46:38.255Z,22.37
2023-03-28T07:49:06.895Z,24.21
2023-03-28T07:51:35.795Z,26.13
2023-03-28T07:54:05.381Z,25.91
2023-03-28T07:56:33.322Z,25.78
2023-03-28T07:59:19.925Z,23.02
2023-03-28T08:01:51.736Z,25.60
2023-03-28T08:04:20.842Z,25.45
2023-03-28T08:07:02.563Z,24.89
2023-03-28T08:09:30.442Z,23.88
2023-03-28T08:12:12.704Z,22.97
2023-03-28T08:14:40.532Z,22.69
2023-03-28T08:17:10.076Z,21.46
2023-03-28T08:19:38.321Z,21.91
2023-03-28T08:22:12.550Z,22.06
2023-03-28T08:25:07.912Z,21.75
2023-03-28T08:27:37.379Z,21.88
2023-03-28T08:30:10.960Z,21.50
2023-03-28T08:32:49.804Z,19.92
2023-03-28T08:35:17.872Z,20.76
2023-03-28T08:37:47.477Z,22.49
2023-03-28T08:40:19.296Z,22.38
2023-03-28T08:43:08.803Z,22.92
2023-03-28T08:45:53.812Z,21.12
2023-03-28T08:48:32.009Z,22.78
2023-03-28T08:51:07.981Z,23.31
2023-03-28T08:53:44.031Z,22.95
2023-03-28T08:56:15.771Z,21.98
2023-03-28T08:58:58.249Z,21.11
2023-03-28T09:01:29.889Z,21.51
2023-03-28T09:03:57.970Z,20.46
2023-03-28T09:06:41.249Z,20.15
2023-03-28T09:09:32.547Z,21.13
2023-03-28T09:12:23.311Z,21.59
2023-03-28T09:15:16.579Z,20.68
2023-03-28T09:18:17.418Z,20.32
2023-03-28T09:21:03.776Z,20.37
2023-03-28T09:23:35.831Z,20.56
2023-03-28T09:26:40.034Z,20.97
2023-03-28T09:29:18.118Z,20.64
2023-03-28T09:31:49.691Z,20.58
2023-03-28T09:34:27.876Z,19.60
2023-03-28T09:37:13.181Z,18.53
2023-03-28T09:39:52.541Z,16.72
2023-03-28T09:42:30.605Z,17.30
2023-03-28T09:45:37.345Z,18.08
2023-03-28T09:48:28.721Z,17.98
2023-03-28T09:51:02.966Z,18.62
2023-03-28T09:53:34.546Z,18.95
2023-03-28T09:56:26.630Z,18.09
2023-03-28T09:58:59.568Z,20.68
2023-03-28T10:01:48.424Z,20.16
2023-03-28T10:04:53.510Z,16.68
2023-03-28T10:07:48.016Z,14.96
2023-03-28T10:10:34.354Z,20.67
2023-03-28T10:13:10.094Z,24.18
2023-03-28T10:15:43.458Z,24.21
2023-03-28T10:18:21.868Z,22.90
2023-03-28T10:21:08.603Z,23.03
2023-03-28T10:23:37.101Z,23.07
2023-03-28T10:26:06.402Z,22.45
2023-03-28T10:28:37.658Z,22.15
2023-03-28T10:31:07.892Z,21.42
2023-03-28T10:33:46.557Z,17.06
2023-03-28T10:36:43.840Z,15.93
2023-03-28T10:39:23.934Z,18.24
2023-03-28T10:42:06.629Z,15.30
2023-03-28T10:45:30.682Z,14.67
2023-03-28T10:48:01.710Z,14.54
2023-03-28T10:50:50.085Z,13.43
2023-03-28T10:53:47.895Z,13.48
2023-03-28T10:56:28.875Z,13.90
2023-03-28T10:59:14.792Z,13.46
2023-03-28T11:02:07.537Z,13.24
2023-03-28T11:05:00.131Z,13.46
2023-03-28T11:07:52.579Z,13.61
2023-03-28T11:10:59.892Z,13.09
2023-03-28T11:13:55.248Z,13.14
2023-03-28T11:17:03.863Z,13.55
2023-03-28T11:21:12.771Z,13.00
2023-03-28T11:23:46.303Z,12.73
2023-03-28T11:26:48.575Z,12.86
2023-03-28T11:30:01.424Z,12.31
2023-03-28T11:32:59.997Z,12.39
2023-03-28T11:35:42.791Z,12.99
2023-03-28T11:38:27.999Z,12.69
2023-03-28T11:41:22.137Z,13.07
2023-03-28T11:44:37.570Z,13.31
2023-03-28T11:47:18.895Z,12.93
2023-03-28T11:50:15.290Z,11.76
2023-03-28T11:53:11.356Z,11.21
2023-03-28T11:55:52.223Z,11.55
2023-03-28T11:58:47.353Z,11.42
2023-03-28T12:01:23.288Z,11.98
2023-03-28T12:04:00.428Z,10.83
2023-03-28T12:07:02.356Z,11.23
2023-03-28T12:09:45.426Z,11.39
2023-03-28T12:12:18.833Z,11.51
2023-03-28T12:15:05.964Z,13.20
2023-03-28T12:18:02.857Z,12.18
2023-03-28T12:21:03.412Z,12.09
2023-03-28T12:23:45.151Z,12.21
2023-03-28T12:27:09.422Z,12.25
2023-03-28T12:30:07.571Z,11.92
2023-03-28T12:32:59.922Z,10.67
2023-03-28T12:35:48.617Z,10.74
2023-03-28T12:38:29.491Z,11.00
2023-03-28T12:41:26.953Z,10.65
2023-03-28T12:44:05.439Z,10.27
2023-03-28T12:46:48.809Z,9.58
2023-03-28T12:49:36.494Z,9.60
2023-03-28T12:52:17.479Z,9.11
2023-03-28T12:54:57.736Z,9.20
2023-03-28T12:57:41.115Z,10.10
2023-03-28T13:00:23.958Z,10.18
2023-03-28T13:03:48.411Z,9.55
2023-03-28T13:06:49.713Z,9.64
2023-03-28T13:09:31.346Z,9.20
2023-03-28T13:12:03.493Z,9.13
2023-03-28T13:14:41.477Z,8.82
2023-03-28T13:17:27.194Z,7.90
2023-03-28T13:20:08.101Z,7.13
2023-03-28T13:22:49.320Z,7.31
2023-03-28T13:25:21.333Z,7.17
2023-03-28T13:27:51.391Z,6.93
2023-03-28T13:30:32.880Z,7.22
2023-03-28T13:33:08.147Z,7.48
2023-03-28T13:35:36.265Z,7.78
2023-03-28T13:38:29.738Z,7.21
2023-03-28T13:41:09.968Z,7.44
2023-03-28T13:43:56.366Z,6.72
2023-03-28T13:46:53.865Z,6.89
2023-03-28T13:49:31.129Z,6.52
2023-03-28T13:52:13.347Z,5.61
2023-03-28T13:54:41.493Z,4.57
2023-03-28T13:57:17.848Z,5.28
2023-03-28T13:59:59.874Z,5.92
2023-03-28T14:02:46.674Z,6.57
2023-03-28T14:05:26.500Z,6.72
2023-03-28T14:08:01.747Z,6.72
2023-03-28T14:10:34.608Z,7.64
2023-03-28T14:13:19.063Z,7.94
2023-03-28T14:15:48.209Z,8.86
2023-03-28T14:18:22.067Z,8.84
2023-03-28T14:20:50.119Z,10.03
2023-03-28T14:23:29.777Z,10.83
2023-03-28T14:26:02.508Z,10.05
2023-03-28T14:28:30.930Z,10.11
2023-03-28T14:30:59.346Z,11.23
2023-03-28T14:33:37.581Z,11.98
2023-03-28T14:36:06.321Z,12.96
2023-03-28T14:38:38.541Z,13.43
2023-03-28T14:41:19.611Z,13.92
2023-03-28T14:43:52.474Z,13.99
2023-03-28T14:46:30.251Z,15.41
2023-03-28T14:49:01.543Z,15.77
2023-03-28T14:51:40.272Z,15.09
2023-03-28T14:54:14.592Z,15.53
2023-03-28T14:56:45.645Z,15.93
2023-03-28T14:59:18.163Z,16.59
2023-03-28T15:01:51.803Z,16.43
2023-03-28T15:04:23.144Z,16.21
2023-03-28T15:06:56.536Z,16.10
2023-03-28T15:09:33.453Z,16.06
2023-03-28T15:12:07.096Z,15.87
2023-03-28T15:14:41.692Z,16.67
2023-03-28T15:17:19.580Z,17.27
2023-03-28T15:19:53.160Z,17.32
2023-03-28T15:22:28.135Z,17.04
2023-03-28T15:24:58.265Z,16.97
2023-03-28T15:27:33.941Z,15.95
2023-03-28T15:30:13.477Z,15.84
2023-03-28T15:32:41.674Z,16.00
2023-03-28T15:35:30.915Z,16.12
2023-03-28T15:38:08.276Z,15.83
2023-03-28T15:40:44.753Z,16.12
2023-03-28T15:43:33.508Z,16.34
2023-03-28T15:46:04.462Z,16.40
2023-03-28T15:48:36.749Z,16.21
2023-03-28T15:51:19.021Z,17.23
2023-03-28T15:53:49.172Z,17.75
2023-03-28T15:56:22.071Z,17.93
2023-03-28T15:58:50.082Z,18.29
2023-03-28T16:01:32.688Z,18.42
2023-03-28T16:04:22.400Z,18.66
2023-03-28T16:07:14.890Z,18.68
2023-03-28T16:09:43.486Z,18.69
2023-03-28T16:12:15.782Z,18.69
2023-03-28T16:14:53.088Z,19.13
2023-03-28T16:17:49.251Z,18.66
2023-03-28T16:20:28.143Z,18.69
2023-03-28T16:23:00.148Z,18.60
2023-03-28T16:25:29.267Z,17.57
2023-03-28T16:27:58.122Z,17.57
2023-03-28T16:30:34.123Z,17.36
2023-03-28T16:33:02.092Z,17.30
2023-03-28T16:35:30.129Z,17.40
2023-03-28T16:37:58.308Z,18.75
2023-03-28T16:40:26.397Z,19.19
2023-03-28T16:42:54.831Z,19.35
2023-03-28T16:45:23.251Z,18.36
2023-03-28T16:47:51.414Z,18.92
2023-03-28T16:50:19.630Z,19.42
2023-03-28T16:52:47.535Z,19.42
2023-03-28T16:55:18.211Z,20.55
2023-03-28T16:57:46.606Z,20.67
2023-03-28T17:00:18.169Z,21.26
2023-03-28T17:02:47.749Z,21.06
2023-03-28T17:05:16.999Z,21.43
2023-03-28T17:07:45.035Z,21.69
2023-03-28T17:10:13.098Z,21.38
2023-03-28T17:12:41.525Z,21.95
2023-03-28T17:15:09.981Z,22.09
2023-03-28T17:17:38.000Z,21.77
2023-03-28T17:20:06.815Z,21.46
2023-03-28T17:22:34.848Z,21.71
2023-03-28T17:25:02.981Z,22.36
2023-03-28T17:27:31.034Z,22.27
2023-03-28T17:29:59.064Z,21.95
2023-03-28T17:32:27.346Z,22.08
2023-03-28T17:34:55.472Z,22.08
2023-03-28T17:37:24.547Z,22.29
2023-03-28T17:39:52.713Z,22.16
2023-03-28T17:42:20.852Z,22.16
2023-03-28T17:44:48.876Z,21.93
2023-03-28T17:47:17.186Z,22.64
2023-03-28T17:49:45.151Z,22.46
2023-03-28T17:52:13.166Z,22.74
2023-03-28T17:54:41.344Z,22.74
2023-03-28T17:57:09.824Z,23.00
2023-03-28T17:59:37.862Z,22.84
2023-03-28T18:02:05.892Z,22.98
2023-03-28T18:04:34.068Z,23.24
2023-03-28T18:07:16.780Z,23.68
2023-03-28T18:09:46.060Z,24.11
2023-03-28T18:12:14.132Z,24.33
2023-03-28T18:14:42.251Z,24.45
2023-03-28T18:17:10.425Z,24.94
2023-03-28T18:19:38.489Z,25.14
2023-03-28T18:22:06.596Z,25.20
2023-03-28T18:24:34.696Z,25.43
2023-03-28T18:27:02.734Z,26.08
2023-03-28T18:29:31.332Z,26.56
2023-03-28T18:31:59.379Z,27.24
2023-03-28T18:34:27.547Z,27.87
2023-03-28T18:36:55.885Z,28.02
2023-03-28T18:39:23.938Z,28.29
2023-03-28T18:41:52.220Z,28.38
2023-03-28T18:44:20.156Z,28.87
2023-03-28T18:46:55.088Z,29.19
2023-03-28T18:49:23.077Z,29.65
2023-03-28T18:51:51.127Z,29.80
2023-03-28T18:54:20.155Z,30.25
2023-03-28T18:56:48.603Z,29.85
2023-03-28T18:59:17.821Z,30.02
2023-03-28T19:01:51.753Z,30.33
2023-03-28T19:04:23.350Z,30.47
2023-03-28T19:06:52.876Z,30.39
2023-03-28T19:09:21.450Z,29.89
2023-03-28T19:11:53.399Z,30.38
2023-03-28T19:14:21.388Z,29.93
2023-03-28T19:16:49.559Z,29.82
2023-03-28T19:19:17.657Z,30.53
2023-03-28T19:21:45.687Z,29.83
2023-03-28T19:24:13.712Z,30.62
2023-03-28T19:26:41.737Z,30.92
2023-03-28T19:29:09.784Z,30.80
2023-03-28T19:31:37.862Z,30.77
2023-03-28T19:34:08.057Z,30.92
2023-03-28T19:36:36.229Z,30.99
2023-03-28T19:39:04.368Z,31.27
2023-03-28T19:41:32.341Z,31.35
2023-03-28T19:44:00.767Z,31.28
2023-03-28T19:46:36.446Z,31.38
2023-03-28T19:49:07.164Z,31.05
2023-03-28T19:51:35.981Z,31.28
2023-03-28T19:54:05.031Z,31.51
2023-03-28T19:56:33.603Z,31.38
2023-03-28T19:59:01.941Z,31.10
2023-03-28T20:01:30.273Z,31.19
2023-03-28T20:03:58.387Z,31.12
2023-03-28T20:06:26.479Z,31.45
2023-03-28T20:08:54.766Z,31.52
2023-03-28T20:11:22.820Z,31.55
2023-03-28T20:13:51.586Z,31.77
2023-03-28T20:16:20.291Z,31.90
2023-03-28T20:18:48.652Z,31.77
2023-03-28T20:21:17.232Z,31.61
2023-03-28T20:23:45.349Z,31.83
2023-03-28T20:26:18.973Z,31.55
2023-03-28T20:28:50.408Z,31.30
2023-03-28T20:31:19.561Z,30.77
2023-03-28T20:33:47.580Z,31.29
2023-03-28T20:36:15.681Z,32.07
2023-03-28T20:38:43.925Z,32.32
2023-03-28T20:41:14.225Z,32.75
2023-03-28T20:43:47.859Z,32.70
2023-03-28T20:46:20.615Z,32.40
2023-03-28T20:48:53.223Z,32.91
2023-03-28T20:51:23.289Z,32.90
2023-03-28T20:53:59.243Z,32.98
2023-03-28T20:56:29.658Z,32.94
2023-03-28T20:58:59.071Z,32.34
2023-03-28T21:01:30.307Z,32.83
2023-03-28T21:04:00.419Z,32.87
2023-03-28T21:06:33.670Z,32.44
2023-03-28T21:09:05.030Z,32.32
2023-03-28T21:11:35.330Z,32.98
2023-03-28T21:14:04.822Z,33.13
2023-03-28T21:16:33.366Z,32.34
2023-03-28T21:19:02.827Z,32.79
2023-03-28T21:21:33.541Z,32.35
2023-03-28T21:24:02.364Z,32.41
2023-03-28T21:26:31.626Z,32.60
2023-03-28T21:28:59.814Z,33.12
2023-03-28T21:31:29.717Z,33.38
2023-03-28T21:33:59.262Z,33.73
2023-03-28T21:36:28.134Z,33.48
2023-03-28T21:38:56.994Z,33.52
2023-03-28T21:41:27.576Z,32.70
2023-03-28T21:43:56.276Z,32.56
2023-03-28T21:46:24.417Z,33.00
2023-03-28T21:48:52.495Z,32.97
2023-03-28T21:51:20.493Z,33.09
2023-03-28T21:53:48.484Z,33.29
2023-03-28T21:56:16.965Z,33.09
2023-03-28T21:58:45.038Z,32.95
2023-03-28T22:01:15.056Z,33.43
2023-03-28T22:03:43.259Z,33.48
2023-03-28T22:06:11.750Z,34.26
2023-03-28T22:08:41.239Z,34.07
2023-03-28T22:11:17.780Z,34.05
2023-03-28T22:13:47.721Z,34.10
2023-03-28T22:16:15.830Z,34.40
2023-03-28T22:18:50.218Z,34.63
2023-03-28T22:21:18.447Z,34.62
2023-03-28T22:23:47.792Z,35.09
2023-03-28T22:26:16.363Z,35.22
2023-03-28T22:28:44.417Z,34.96
2023-03-28T22:31:13.059Z,35.01
2023-03-28T22:33:40.967Z,35.07
2023-03-28T22:36:09.761Z,34.91
2023-03-28T22:38:37.863Z,35.25
2023-03-28T22:41:07.921Z,35.75
2023-03-28T22:43:36.506Z,36.50
2023-03-28T22:46:08.392Z,35.93
2023-03-28T22:48:38.392Z,36.30
2023-03-28T22:51:12.098Z,36.00
2023-03-28T22:53:40.512Z,34.99
2023-03-28T22:56:09.157Z,34.34
2023-03-28T22:58:37.293Z,33.96
2023-03-28T23:01:06.016Z,33.28
2023-03-28T23:03:34.094Z,33.26
2023-03-28T23:06:06.312Z,33.66
2023-03-28T23:08:34.383Z,33.54
2023-03-28T23:11:02.505Z,34.45
2023-03-28T23:13:30.712Z,34.87
2023-03-28T23:15:58.715Z,34.29
2023-03-28T23:18:26.734Z,34.56
2023-03-28T23:20:54.622Z,34.86
2023-03-28T23:23:23.424Z,35.24
2023-03-28T23:25:51.661Z,34.95
2023-03-28T23:28:20.396Z,35.27
2023-03-28T23:30:48.712Z,35.60
2023-03-28T23:33:18.741Z,35.76
2023-03-28T23:35:48.604Z,35.68
2023-03-28T23:38:17.795Z,35.79
2023-03-28T23:40:46.811Z,36.17
2023-03-28T23:43:15.039Z,36.51
2023-03-28T23:45:44.061Z,37.05
2023-03-28T23:48:12.200Z,36.42
2023-03-28T23:50:40.464Z,36.16
2023-03-28T23:53:08.627Z,36.46
2023-03-28T23:55:37.162Z,36.87
2023-03-28T23:58:05.202Z,36.79
